Time;durP1;ratioP1;P1;durP2;ratioP2;P2;SDS_P1;SDS_P2;PMS_P1;PMS_P2;Temp;Humidity;BMP_temperature;BMP_pressure;BME280_temperature;BME280_humidity;BME280_pressure;Samples;Min_cycle;Max_cycle;Signal;HPM_P1;HPM_P2
2024/04/18 06:04:00;;;;;;;41.90;14.60;;;;;;;12.94;100.00;98340.91;112420;1247;25276;-54
2024/04/18 06:06:27;;;;;;;38.90;12.40;;;;;;;12.99;100.00;98349.08;112226;1247;23414;-56
2024/04/18 06:09:15;;;;;;;39.60;12.70;;;;;;;13.05;100.00;98352.18;111508;1247;22486;-48
2024/04/18 06:11:43;;;;;;;53.10;13.90;;;;;;;13.06;100.00;98337.27;112428;1247;23021;-47
2024/04/18 06:14:19;;;;;;;51.00;14.10;;;;;;;13.05;100.00;98332.05;112100;1247;25372;-48
2024/04/18 06:16:48;;;;;;;38.40;13.60;;;;;;;13.05;100.00;98333.11;112435;1247;22932;-45
2024/04/18 06:19:16;;;;;;;39.80;14.00;;;;;;;13.08;100.00;98338.77;112281;1247;24332;-54
2024/04/18 06:21:46;;;;;;;41.90;13.90;;;;;;;13.14;100.00;98330.83;112520;1247;22651;-55
2024/04/18 06:24:14;;;;;;;48.60;13.90;;;;;;;13.22;100.00;98327.66;112857;1247;23024;-46
2024/04/18 06:26:42;;;;;;;43.70;12.90;;;;;;;13.30;100.00;98331.74;112796;1247;22451;-56
2024/04/18 06:29:10;;;;;;;42.40;13.60;;;;;;;13.40;100.00;98329.94;112929;1237;23135;-54
2024/04/18 06:31:39;;;;;;;50.40;14.50;;;;;;;13.47;100.00;98338.38;112977;1237;22223;-54
2024/04/18 06:34:08;;;;;;;50.90;16.20;;;;;;;13.50;100.00;98349.26;112976;1247;22934;-54
2024/04/18 06:36:40;;;;;;;56.10;16.60;;;;;;;13.53;100.00;98351.59;112838;1247;22528;-55
2024/04/18 06:39:11;;;;;;;44.70;14.00;;;;;;;13.55;100.00;98363.21;112591;1247;22314;-53
2024/04/18 06:41:44;;;;;;;53.30;15.80;;;;;;;13.52;100.00;98373.20;112352;1247;22246;-45
2024/04/18 06:44:11;;;;;;;55.40;16.50;;;;;;;13.44;100.00;98380.53;111653;1247;25250;-55
2024/04/18 06:46:48;;;;;;;52.90;17.40;;;;;;;13.37;100.00;98381.19;112995;1247;22384;-46
2024/04/18 06:49:28;;;;;;;59.00;15.90;;;;;;;13.31;100.00;98363.91;111688;1247;22612;-54
2024/04/18 06:51:55;;;;;;;47.70;16.20;;;;;;;13.34;100.00;98352.77;112739;1247;22349;-45
2024/04/18 06:54:26;;;;;;;32.30;12.70;;;;;;;13.45;100.00;98343.71;111728;1237;24173;-53
2024/04/18 06:56:53;;;;;;;39.50;15.10;;;;;;;13.56;100.00;98339.05;112769;1247;22441;-46
2024/04/18 06:59:20;;;;;;;40.60;14.60;;;;;;;13.63;100.00;98337.86;112489;1247;22532;-46
2024/04/18 07:01:47;;;;;;;51.10;15.30;;;;;;;13.74;100.00;98337.20;113055;1244;23514;-45
2024/04/18 07:04:16;;;;;;;42.90;13.80;;;;;;;13.93;100.00;98334.95;113140;1237;22951;-45
2024/04/18 07:07:06;;;;;;;36.10;13.60;;;;;;;14.11;100.00;98322.04;112070;1237;24252;-47
2024/04/18 07:10:20;;;;;;;39.20;13.70;;;;;;;14.29;100.00;98312.30;112000;1247;22534;-48
2024/04/18 07:14:33;;;;;;;47.00;14.40;;;;;;;14.56;100.00;98299.45;112743;1240;22753;-46
2024/04/18 07:18:16;;;;;;;41.90;13.50;;;;;;;14.89;100.00;98291.76;112253;1247;22498;-46
2024/04/18 07:21:27;;;;;;;59.20;11.70;;;;;;;15.13;100.00;98280.73;112640;1247;23330;-47
2024/04/18 07:54:25;;;;;;;23.40;8.80;;;;;;;16.52;100.00;98242.73;113176;1247;23368;-55
2024/04/18 08:10:51;;;;;;;18.50;7.80;;;;;;;17.08;100.00;98255.36;112047;1247;24214;-55
2024/04/18 08:14:45;;;;;;;18.50;7.90;;;;;;;17.03;100.00;98266.06;112835;1247;22428;-48
2024/04/18 08:55:16;;;;;;;20.10;9.40;;;;;;;16.85;100.00;98244.77;113094;1247;22392;-56
2024/04/18 09:02:25;;;;;;;20.90;9.50;;;;;;;17.18;100.00;98184.29;113075;1247;23107;-45
2024/04/18 09:06:05;;;;;;;21.20;8.80;;;;;;;17.33;100.00;98205.63;112892;1247;22529;-45
2024/04/18 09:10:07;;;;;;;19.30;8.50;;;;;;;17.48;100.00;98232.02;112433;1247;22281;-56
2024/04/18 09:29:21;;;;;;;17.90;9.20;;;;;;;17.58;100.00;98210.66;112872;1247;22522;-54
2024/04/18 09:36:37;;;;;;;24.90;8.20;;;;;;;17.47;100.00;98212.70;112938;1246;22685;-56
2024/04/18 09:40:15;;;;;;;24.40;10.20;;;;;;;17.44;100.00;98231.87;112682;1246;23237;-47
2024/04/18 09:50:51;;;;;;;19.80;9.60;;;;;;;17.62;100.00;98227.83;112836;1247;23076;-45
2024/04/18 09:53:33;;;;;;;25.40;9.60;;;;;;;17.61;100.00;98219.25;112465;1247;22896;-48
2024/04/18 09:56:13;;;;;;;20.30;9.90;;;;;;;17.59;100.00;98192.22;112668;1247;22905;-56
2024/04/18 09:58:59;;;;;;;29.80;8.80;;;;;;;17.59;100.00;98178.11;113092;1247;22227;-57
2024/04/18 10:01:26;;;;;;;23.90;8.90;;;;;;;17.60;100.00;98173.50;113029;1247;22427;-54
2024/04/18 10:03:53;;;;;;;22.40;7.90;;;;;;;17.59;100.00;98176.16;113062;1247;22364;-49
2024/04/18 10:06:22;;;;;;;27.00;9.00;;;;;;;17.55;100.00;98192.61;113032;1247;22441;-48
2024/04/18 10:08:50;;;;;;;16.20;6.40;;;;;;;17.51;100.00;98206.27;112766;1247;23132;-54
2024/04/18 10:11:22;;;;;;;21.90;6.20;;;;;;;17.42;100.00;98220.41;112292;1247;22842;-55
2024/04/18 10:13:52;;;;;;;19.40;7.00;;;;;;;17.24;100.00;98226.92;113120;1247;23256;-46
2024/04/18 10:16:22;;;;;;;21.60;7.40;;;;;;;17.07;100.00;98229.52;112578;1247;22475;-56
2024/04/18 10:18:49;;;;;;;20.40;7.50;;;;;;;16.91;100.00;98225.02;112676;1247;22531;-55
2024/04/18 10:21:23;;;;;;;18.60;7.50;;;;;;;16.81;100.00;98222.79;113064;1247;23234;-58
2024/04/18 10:24:05;;;;;;;19.50;7.90;;;;;;;16.73;100.00;98225.36;112858;1247;22332;-56
2024/04/18 10:26:32;;;;;;;18.40;8.20;;;;;;;16.65;100.00;98221.36;113110;1247;23279;-56
2024/04/18 10:28:59;;;;;;;12.30;6.40;;;;;;;16.58;100.00;98200.52;113071;1247;22535;-55
2024/04/18 10:31:27;;;;;;;16.60;5.30;;;;;;;16.51;100.00;98199.70;113040;1247;23010;-50
2024/04/18 10:33:54;;;;;;;15.50;5.60;;;;;;;16.45;100.00;98195.78;112917;1246;22883;-48
2024/04/18 10:36:21;;;;;;;19.30;6.00;;;;;;;16.41;100.00;98188.13;112933;1247;22519;-56
2024/04/18 10:38:48;;;;;;;9.40;4.30;;;;;;;16.39;100.00;98186.98;112723;1247;22955;-49
2024/04/18 10:41:16;;;;;;;13.50;5.20;;;;;;;16.39;100.00;98186.95;113015;1247;23022;-46
2024/04/18 10:43:43;;;;;;;13.40;5.00;;;;;;;16.40;100.00;98186.02;113082;1247;22392;-57
2024/04/18 10:46:11;;;;;;;17.50;4.90;;;;;;;16.41;100.00;98192.35;113090;1247;23147;-59
2024/04/18 10:48:38;;;;;;;10.90;4.40;;;;;;;16.40;100.00;98188.13;113066;1247;22494;-48
2024/04/18 10:51:06;;;;;;;21.20;7.10;;;;;;;16.39;100.00;98195.06;113031;1247;22490;-49
2024/04/18 10:53:34;;;;;;;19.60;5.70;;;;;;;16.37;100.00;98204.14;113094;1247;23308;-47
2024/04/18 10:56:01;;;;;;;20.30;7.10;;;;;;;16.37;100.00;98202.23;112447;1246;22402;-49
2024/04/18 10:58:28;;;;;;;15.20;6.40;;;;;;;16.38;100.00;98206.40;113033;1247;23107;-50
2024/04/18 11:00:59;;;;;;;16.10;5.80;;;;;;;16.37;100.00;98202.23;112864;1247;22584;-50
2024/04/18 11:03:27;;;;;;;14.40;6.20;;;;;;;16.35;100.00;98179.98;112885;1246;22507;-57
2024/04/18 11:05:59;;;;;;;15.90;6.20;;;;;;;16.30;100.00;98182.55;112178;1247;23770;-58
2024/04/18 11:08:27;;;;;;;13.80;6.50;;;;;;;16.24;100.00;98189.08;112964;1247;22423;-58
2024/04/18 11:10:58;;;;;;;16.00;7.00;;;;;;;16.15;100.00;98188.68;112863;1247;22354;-48
2024/04/18 11:13:25;;;;;;;16.00;6.60;;;;;;;16.06;100.00;98181.46;112254;1243;22416;-57
2024/04/18 11:15:52;;;;;;;14.30;6.30;;;;;;;15.99;100.00;98172.19;112905;1247;23214;-49
2024/04/18 11:18:22;;;;;;;13.10;5.20;;;;;;;15.92;100.00;98179.41;112992;1247;22408;-48
2024/04/18 11:20:53;;;;;;;13.40;5.10;;;;;;;15.86;100.00;98183.23;112071;1247;24194;-48
2024/04/18 11:23:24;;;;;;;8.40;4.50;;;;;;;15.82;100.00;98191.03;112297;1247;22461;-56
2024/04/18 11:26:06;;;;;;;13.10;4.90;;;;;;;15.75;100.00;98173.54;112617;1247;22498;-47
2024/04/18 11:28:34;;;;;;;11.00;5.40;;;;;;;15.68;100.00;98178.23;113105;1247;22404;-47
2024/04/18 11:31:00;;;;;;;18.40;6.30;;;;;;;15.62;100.00;98182.42;111818;1247;22457;-48
2024/04/18 11:33:28;;;;;;;15.10;6.90;;;;;;;15.55;100.00;98182.65;112681;1247;23107;-47
2024/04/18 11:35:55;;;;;;;18.40;7.70;;;;;;;15.49;100.00;98186.33;112621;1247;22483;-47
2024/04/18 11:38:23;;;;;;;21.50;7.70;;;;;;;15.43;100.00;98186.27;113154;1247;22388;-48
2024/04/18 11:40:50;;;;;;;22.10;7.70;;;;;;;15.41;100.00;98191.27;113132;1247;22222;-48
2024/04/18 11:43:17;;;;;;;13.50;6.80;;;;;;;15.40;100.00;98193.40;113136;1247;22260;-48
2024/04/18 11:45:44;;;;;;;11.50;6.60;;;;;;;15.42;100.00;98195.06;112559;1247;23092;-47
2024/04/18 11:48:11;;;;;;;20.30;6.50;;;;;;;15.48;100.00;98199.52;112856;1247;22419;-48
2024/04/18 11:50:39;;;;;;;12.90;6.00;;;;;;;15.53;100.00;98191.36;112803;1247;23371;-57
2024/04/18 11:53:08;;;;;;;22.00;7.60;;;;;;;15.58;100.00;98192.30;113034;1247;23165;-58
2024/04/18 11:55:39;;;;;;;12.10;6.20;;;;;;;15.62;100.00;98198.09;113025;1247;22367;-57
2024/04/18 11:58:29;;;;;;;18.30;7.00;;;;;;;15.64;100.00;98195.86;112906;1247;23344;-50
2024/04/18 12:00:56;;;;;;;20.10;7.90;;;;;;;15.67;100.00;98199.97;113108;1247;22857;-47
2024/04/18 12:03:40;;;;;;;16.80;7.60;;;;;;;15.68;100.00;98202.31;113073;1247;23186;-46
2024/04/18 12:06:25;;;;;;;20.00;6.90;;;;;;;15.69;100.00;98214.06;113040;1247;23321;-47
2024/04/18 12:08:52;;;;;;;13.80;6.10;;;;;;;15.66;100.00;98207.19;113051;1247;22243;-49
2024/04/18 12:11:29;;;;;;;13.30;6.20;;;;;;;15.63;100.00;98213.86;113019;1247;22452;-57
2024/04/18 12:14:12;;;;;;;20.20;8.10;;;;;;;15.57;100.00;98229.08;112962;1247;22401;-48
2024/04/18 12:16:55;;;;;;;12.70;4.40;;;;;;;15.48;100.00;98249.05;112935;1247;22311;-48
2024/04/18 12:19:40;;;;;;;6.00;2.70;;;;;;;15.34;100.00;98241.55;112810;1247;22995;-56
2024/04/18 12:22:10;;;;;;;8.40;2.80;;;;;;;15.19;100.00;98245.48;112995;1247;22428;-57
2024/04/18 12:24:37;;;;;;;4.40;3.00;;;;;;;15.00;100.00;98248.02;112925;1247;22445;-47
2024/04/18 12:27:09;;;;;;;;;;;;;;;14.78;100.00;98251.76;113102;1247;22503;-56
2024/04/18 12:29:53;;;;;;;6.80;2.20;;;;;;;14.54;100.00;98263.94;112234;1246;22501;-56
2024/04/18 12:32:21;;;;;;;2.90;1.90;;;;;;;14.38;100.00;98252.25;111183;1247;22471;-57
2024/04/18 12:34:49;;;;;;;3.60;2.00;;;;;;;14.25;100.00;98259.52;111133;1247;23091;-47
2024/04/18 12:37:16;;;;;;;4.40;1.80;;;;;;;14.12;100.00;98252.96;113145;1247;22479;-47
2024/04/18 12:39:47;;;;;;;3.20;1.70;;;;;;;14.01;100.00;98251.38;112657;1247;22494;-47
2024/04/18 12:42:24;;;;;;;2.10;1.50;;;;;;;13.92;100.00;98239.33;113185;1247;23637;-56
2024/04/18 12:44:51;;;;;;;4.60;1.80;;;;;;;13.86;100.00;98230.31;113154;1247;23250;-47
2024/04/18 12:47:20;;;;;;;1.90;1.50;;;;;;;13.81;100.00;98228.43;113175;1247;22416;-48
2024/04/18 12:49:48;;;;;;;4.30;1.80;;;;;;;13.77;100.00;98233.71;112948;1247;23001;-47
2024/04/18 12:52:15;;;;;;;5.10;1.70;;;;;;;13.73;100.00;98237.05;113173;1247;22389;-48
2024/04/18 12:54:42;;;;;;;3.40;1.80;;;;;;;13.70;100.00;98236.83;113157;1247;23269;-47
2024/04/18 12:57:22;;;;;;;1.90;1.40;;;;;;;13.70;100.00;98235.61;113177;1247;23146;-49
2024/04/18 13:00:04;;;;;;;2.70;1.50;;;;;;;13.69;100.00;98234.43;113188;1247;22403;-56
2024/04/18 13:02:51;;;;;;;2.60;1.70;;;;;;;13.67;100.00;98245.00;113191;1247;22450;-56
2024/04/18 13:05:34;;;;;;;6.30;2.40;;;;;;;13.65;100.00;98249.85;112788;1247;22881;-57
2024/04/18 13:08:04;;;;;;;2.90;1.60;;;;;;;13.65;100.00;98249.86;113164;1247;22415;-57
2024/04/18 13:10:50;;;;;;;3.20;1.50;;;;;;;13.63;100.00;98256.23;113205;1247;22429;-48
2024/04/18 13:13:23;;;;;;;2.20;1.40;;;;;;;13.63;100.00;98262.56;113214;1247;23148;-57
2024/04/18 13:16:08;;;;;;;1.80;1.40;;;;;;;13.59;100.00;98265.15;113179;1247;22648;-57
2024/04/18 13:18:36;;;;;;;1.60;1.30;;;;;;;13.57;100.00;98256.83;113175;1247;22491;-57
2024/04/18 13:21:03;;;;;;;1.70;1.10;;;;;;;13.58;100.00;98260.14;112648;1247;22180;-56
2024/04/18 13:23:30;;;;;;;2.40;1.30;;;;;;;13.56;100.00;98263.21;113125;1247;22253;-47
